createdAt,value
2018-06-23T00:02:45.266Z,52.25
2018-06-23T00:06:09.936Z,51.82
2018-06-23T00:09:34.562Z,51.43
2018-06-23T00:12:59.213Z,50.56
2018-06-23T00:16:23.885Z,51.03
2018-06-23T00:19:48.658Z,51.83
2018-06-23T00:23:13.350Z,51.97
2018-06-23T00:26:38.239Z,51.91
2018-06-23T00:30:02.979Z,52.69
2018-06-23T00:33:27.676Z,52.52
2018-06-23T00:36:52.049Z,52.54
2018-06-23T00:40:16.978Z,52.52
2018-06-23T00:43:41.701Z,53.48
2018-06-23T00:47:06.350Z,53.80
2018-06-23T00:50:31.024Z,53.22
2018-06-23T00:53:55.703Z,53.35
2018-06-23T00:57:20.325Z,54.29
2018-06-23T01:00:44.647Z,53.93
2018-06-23T01:04:09.293Z,53.07
2018-06-23T01:07:33.989Z,53.28
2018-06-23T01:10:58.635Z,54.17
2018-06-23T01:14:23.377Z,54.57
2018-06-23T01:17:48.141Z,54.31
2018-06-23T01:21:12.918Z,54.72
2018-06-23T01:24:37.219Z,55.03
2018-06-23T01:28:01.885Z,54.86
2018-06-23T01:31:26.559Z,55.31
2018-06-23T01:34:51.225Z,55.50
2018-06-23T01:38:15.533Z,55.22
2018-06-23T01:41:40.358Z,55.21
2018-06-23T01:45:05.095Z,56.19
2018-06-23T01:48:29.774Z,55.72
2018-06-23T01:51:54.460Z,56.13
2018-06-23T01:55:19.117Z,56.42
2018-06-23T01:58:43.763Z,56.76
2018-06-23T02:02:08.390Z,55.94
2018-06-23T02:05:33.041Z,56.61
2018-06-23T02:08:57.725Z,57.15
2018-06-23T02:12:22.348Z,57.62
2018-06-23T02:15:52.333Z,56.91
2018-06-23T02:19:22.165Z,57.20
2018-06-23T02:22:51.907Z,56.85
2018-06-23T02:27:25.795Z,57.04
2018-06-23T02:30:55.853Z,56.90
2018-06-23T02:34:25.650Z,57.36
2018-06-23T02:37:50.061Z,57.19
2018-06-23T02:41:14.825Z,57.59
2018-06-23T02:44:39.493Z,56.79
2018-06-23T02:48:04.202Z,57.23
2018-06-23T02:51:28.874Z,56.94
2018-06-23T02:54:53.494Z,57.82
2018-06-23T02:58:18.147Z,57.45
2018-06-23T03:01:42.786Z,58.09
2018-06-23T03:05:07.474Z,58.65
2018-06-23T03:08:31.852Z,58.26
2018-06-23T03:11:56.528Z,57.93
2018-06-23T03:15:21.225Z,58.92
2018-06-23T03:18:45.522Z,58.46
2018-06-23T03:22:10.239Z,57.59
2018-06-23T03:25:34.964Z,59.25
2018-06-23T03:28:59.627Z,58.80
2018-06-23T03:32:23.919Z,59.14
2018-06-23T03:35:48.653Z,58.71
2018-06-23T03:39:13.304Z,58.96
2018-06-23T03:42:37.947Z,59.34
2018-06-23T03:46:02.727Z,58.81
2018-06-23T03:49:27.398Z,59.62
2018-06-23T03:52:51.676Z,59.55
2018-06-23T03:56:16.370Z,60.58
2018-06-23T04:02:55.835Z,60.49
2018-06-23T04:06:20.521Z,60.07
2018-06-23T04:09:45.225Z,60.77
2018-06-23T04:13:09.890Z,60.79
2018-06-23T04:16:34.718Z,61.32
2018-06-23T04:19:59.014Z,62.09
2018-06-23T04:23:23.659Z,61.69
2018-06-23T04:26:48.504Z,61.68
2018-06-23T04:30:12.847Z,61.42
2018-06-23T04:33:37.590Z,60.85
2018-06-23T04:37:01.941Z,60.02
2018-06-23T04:40:26.617Z,60.91
2018-06-23T04:43:51.357Z,60.65
2018-06-23T04:47:16.077Z,60.86
2018-06-23T04:50:40.803Z,59.26
2018-06-23T04:54:05.609Z,60.99
2018-06-23T04:57:30.364Z,59.87
2018-06-23T05:00:55.016Z,60.45
2018-06-23T05:04:19.805Z,60.81
2018-06-23T05:07:44.695Z,60.74
2018-06-23T05:11:09.643Z,59.51
2018-06-23T05:14:34.366Z,59.48
2018-06-23T05:17:58.865Z,59.83
2018-06-23T05:21:23.607Z,58.89
2018-06-23T05:24:48.329Z,59.85
2018-06-23T05:28:13.025Z,59.61
2018-06-23T05:31:37.671Z,58.93
2018-06-23T05:35:02.373Z,58.93
2018-06-23T05:38:27.070Z,59.04
2018-06-23T05:41:51.769Z,59.01
2018-06-23T05:45:16.556Z,59.68
2018-06-23T05:48:41.331Z,58.79
2018-06-23T05:52:06.107Z,59.46
2018-06-23T05:55:30.805Z,58.83
2018-06-23T05:58:55.604Z,59.15
2018-06-23T06:02:20.374Z,58.86
2018-06-23T06:05:45.214Z,58.59
2018-06-23T06:09:10.677Z,58.14
2018-06-23T06:12:35.395Z,57.56
2018-06-23T06:16:00.189Z,58.79
2018-06-23T06:19:24.979Z,58.23
2018-06-23T06:22:49.731Z,58.13
2018-06-23T06:26:14.446Z,57.35
2018-06-23T06:29:39.252Z,56.91
2018-06-23T06:33:03.940Z,57.10
2018-06-23T06:36:29.238Z,56.67
2018-06-23T06:39:54.557Z,55.96
2018-06-23T06:43:19.809Z,55.55
2018-06-23T06:46:44.526Z,54.75
2018-06-23T06:50:09.266Z,54.30
2018-06-23T06:53:34.047Z,54.61
2018-06-23T06:56:58.721Z,54.57
2018-06-23T07:00:23.383Z,53.73
2018-06-23T07:03:48.294Z,53.48
2018-06-23T07:07:13.118Z,53.51
2018-06-23T07:10:39.882Z,54.24
2018-06-23T07:14:06.117Z,54.10
2018-06-23T07:17:31.114Z,52.27
2018-06-23T07:20:55.854Z,52.18
2018-06-23T07:24:20.730Z,51.42
2018-06-23T07:27:46.580Z,51.69
2018-06-23T07:31:13.510Z,51.69
2018-06-23T07:34:38.437Z,51.27
2018-06-23T07:38:03.011Z,50.62
2018-06-23T07:41:27.938Z,50.31
2018-06-23T07:44:52.948Z,49.35
2018-06-23T07:48:17.622Z,49.73
2018-06-23T07:51:42.573Z,49.42
2018-06-23T07:55:08.246Z,48.36
2018-06-23T07:58:33.863Z,46.96
2018-06-23T08:01:59.596Z,46.09
2018-06-23T08:05:23.975Z,46.02
2018-06-23T08:08:48.949Z,47.02
2018-06-23T08:12:13.792Z,46.71
2018-06-23T08:15:38.729Z,46.05
2018-06-23T08:19:03.585Z,46.86
2018-06-23T08:22:28.505Z,45.96
2018-06-23T08:25:54.130Z,45.88
2018-06-23T08:29:19.110Z,45.69
2018-06-23T08:32:43.821Z,45.97
2018-06-23T08:36:08.703Z,45.80
2018-06-23T08:39:33.452Z,45.34
2018-06-23T08:42:58.270Z,44.29
2018-06-23T08:46:22.980Z,43.63
2018-06-23T08:49:47.824Z,43.32
2018-06-23T08:53:12.595Z,43.15
2018-06-23T08:56:37.332Z,42.72
2018-06-23T09:00:02.270Z,41.86
2018-06-23T09:03:27.024Z,41.55
2018-06-23T09:06:51.713Z,40.43
2018-06-23T09:10:16.564Z,41.13
2018-06-23T09:13:41.274Z,42.29
2018-06-23T09:17:06.254Z,42.73
2018-06-23T09:20:31.055Z,42.41
2018-06-23T09:23:55.767Z,42.07
2018-06-23T09:27:20.608Z,41.37
2018-06-23T09:30:46.378Z,40.60
2018-06-23T09:34:11.183Z,40.68
2018-06-23T09:37:35.881Z,39.88
2018-06-23T09:41:01.357Z,41.64
2018-06-23T09:44:26.383Z,42.49
2018-06-23T09:47:51.295Z,42.92
2018-06-23T09:51:16.271Z,43.78
2018-06-23T09:54:43.382Z,43.15
2018-06-23T09:58:09.084Z,42.88
2018-06-23T10:01:35.058Z,42.26
2018-06-23T10:04:59.510Z,41.61
2018-06-23T10:08:24.388Z,40.16
2018-06-23T10:11:50.493Z,39.22
2018-06-23T10:15:15.360Z,40.32
2018-06-23T10:18:41.012Z,40.44
2018-06-23T10:22:05.880Z,40.14
2018-06-23T10:25:31.289Z,38.91
2018-06-23T10:28:56.891Z,37.73
2018-06-23T10:32:21.734Z,38.51
2018-06-23T10:35:46.513Z,38.17
2018-06-23T10:39:12.267Z,36.58
2018-06-23T10:42:37.007Z,36.12
2018-06-23T10:46:01.525Z,36.69
2018-06-23T10:49:26.294Z,37.20
2018-06-23T10:52:51.038Z,35.41
2018-06-23T10:56:15.776Z,36.53
2018-06-23T10:59:40.385Z,35.11
2018-06-23T11:03:05.254Z,33.87
2018-06-23T11:06:30.019Z,33.82
2018-06-23T11:09:54.888Z,37.01
2018-06-23T11:13:19.818Z,36.35
2018-06-23T11:16:44.560Z,36.91
2018-06-23T11:20:09.483Z,37.25
2018-06-23T11:23:34.382Z,36.70
2018-06-23T11:26:59.638Z,36.36
2018-06-23T11:30:25.339Z,37.66
2018-06-23T11:33:50.361Z,36.08
2018-06-23T11:37:15.032Z,36.63
2018-06-23T11:40:39.922Z,35.62
2018-06-23T11:44:04.770Z,34.19
2018-06-23T11:47:29.594Z,33.67
2018-06-23T11:50:54.329Z,34.87
2018-06-23T11:54:19.117Z,34.55
2018-06-23T11:57:43.916Z,34.76
2018-06-23T12:01:08.806Z,34.73
2018-06-23T12:04:33.868Z,35.14
2018-06-23T12:07:58.620Z,35.42
2018-06-23T12:11:23.979Z,35.32
2018-06-23T12:14:48.842Z,34.08
2018-06-23T12:18:13.746Z,32.88
2018-06-23T12:21:39.573Z,33.10
2018-06-23T12:25:04.284Z,33.63
2018-06-23T12:28:29.144Z,32.62
2018-06-23T12:31:53.887Z,32.02
2018-06-23T12:35:18.759Z,31.56
2018-06-23T12:38:43.471Z,31.78
2018-06-23T12:42:09.442Z,31.83
2018-06-23T12:45:34.743Z,33.16
2018-06-23T12:49:00.843Z,31.83
2018-06-23T12:52:25.739Z,31.84
2018-06-23T12:55:50.625Z,31.76
2018-06-23T12:59:15.803Z,31.24
2018-06-23T13:02:40.758Z,32.50
2018-06-23T13:06:05.594Z,31.25
2018-06-23T13:09:31.329Z,30.94
2018-06-23T13:12:56.098Z,30.58
2018-06-23T13:16:20.856Z,29.51
2018-06-23T13:19:46.183Z,30.07
2018-06-23T13:23:11.381Z,29.68
2018-06-23T13:26:36.078Z,31.11
2018-06-23T13:38:00.100Z,29.07
2018-06-23T13:41:24.908Z,28.45
2018-06-23T13:44:49.687Z,26.54
2018-06-23T13:48:14.631Z,27.80
2018-06-23T13:51:39.744Z,28.11
2018-06-23T13:55:04.671Z,28.05
2018-06-23T13:58:29.534Z,27.17
2018-06-23T14:01:55.281Z,25.88
2018-06-23T14:05:19.997Z,27.05
2018-06-23T14:08:44.780Z,26.60
2018-06-23T14:12:10.013Z,27.39
2018-06-23T14:15:34.749Z,28.08
2018-06-23T14:18:59.500Z,28.04
2018-06-23T14:22:24.157Z,26.14
2018-06-23T14:25:49.068Z,26.07
2018-06-23T14:29:13.803Z,25.60
2018-06-23T14:32:39.020Z,24.45
2018-06-23T14:36:03.961Z,24.96
2018-06-23T14:39:28.686Z,23.76
2018-06-23T14:42:53.455Z,25.17
2018-06-23T14:46:18.218Z,24.59
2018-06-23T14:49:42.931Z,26.13
2018-06-23T14:53:07.609Z,25.90
2018-06-23T14:56:32.248Z,24.47
2018-06-23T14:59:56.929Z,23.25
2018-06-23T15:03:21.652Z,25.53
2018-06-23T15:06:46.046Z,23.51
2018-06-23T15:10:29.037Z,25.58
2018-06-23T15:13:53.330Z,24.05
2018-06-23T15:17:18.032Z,24.27
2018-06-23T15:20:42.910Z,23.56
2018-06-23T15:24:07.248Z,22.54
2018-06-23T15:27:32.136Z,23.38
2018-06-23T15:30:56.950Z,24.17
2018-06-23T15:34:21.644Z,24.13
2018-06-23T15:37:46.308Z,24.29
2018-06-23T15:41:11.052Z,23.90
2018-06-23T15:44:35.440Z,24.13
2018-06-23T15:48:00.162Z,23.48
2018-06-23T15:51:24.895Z,23.11
2018-06-23T15:54:49.538Z,24.34
2018-06-23T15:58:14.212Z,24.23
2018-06-23T16:01:38.601Z,24.22
2018-06-23T16:05:03.482Z,22.96
2018-06-23T16:08:28.296Z,23.18
2018-06-23T16:11:52.978Z,22.60
2018-06-23T16:15:18.034Z,24.02
2018-06-23T16:18:43.043Z,23.95
2018-06-23T16:22:07.825Z,24.23
2018-06-23T16:25:32.724Z,23.57
2018-06-23T16:28:57.515Z,23.97
2018-06-23T16:32:22.226Z,25.56
2018-06-23T16:35:47.050Z,25.79
2018-06-23T16:39:12.384Z,25.42
2018-06-23T16:42:37.226Z,22.96
2018-06-23T16:46:02.016Z,23.23
2018-06-23T16:49:26.865Z,24.37
2018-06-23T16:52:53.338Z,24.05
2018-06-23T16:56:18.280Z,24.41
2018-06-23T16:59:44.697Z,23.00
2018-06-23T17:03:11.049Z,24.74
2018-06-23T17:06:35.829Z,23.93
2018-06-23T17:10:00.673Z,25.23
2018-06-23T17:13:25.034Z,25.16
2018-06-23T17:16:49.806Z,23.93
2018-06-23T17:20:14.558Z,23.91
2018-06-23T17:23:39.240Z,24.59
2018-06-23T17:27:04.167Z,24.20
2018-06-23T17:30:28.501Z,24.39
2018-06-23T17:33:53.184Z,26.38
2018-06-23T17:37:17.843Z,23.76
2018-06-23T17:40:42.465Z,26.26
2018-06-23T17:44:07.418Z,25.20
2018-06-23T17:47:32.110Z,26.46
2018-06-23T17:50:56.768Z,25.44
2018-06-23T17:54:21.363Z,26.57
2018-06-23T17:57:46.408Z,26.82
2018-06-23T18:01:11.281Z,27.65
2018-06-23T18:04:36.387Z,26.47
2018-06-23T18:08:01.158Z,27.74
2018-06-23T18:11:25.774Z,27.24
2018-06-23T18:14:50.412Z,26.37
2018-06-23T18:18:15.181Z,26.45
2018-06-23T18:21:44.488Z,27.13
2018-06-23T18:25:09.593Z,27.34
2018-06-23T18:28:34.445Z,27.08
2018-06-23T18:31:59.158Z,27.68
2018-06-23T18:35:24.567Z,27.90
2018-06-23T18:38:49.611Z,29.38
2018-06-23T18:42:14.562Z,29.28
2018-06-23T18:45:39.427Z,29.53
2018-06-23T18:49:04.205Z,30.20
2018-06-23T18:52:29.106Z,31.08
2018-06-23T18:55:54.478Z,30.56
2018-06-23T18:59:19.235Z,30.80
2018-06-23T19:02:43.958Z,30.60
2018-06-23T19:06:08.998Z,31.57
2018-06-23T19:09:33.993Z,31.91
2018-06-23T19:12:58.805Z,32.14
2018-06-23T19:16:26.628Z,31.12
2018-06-23T19:19:52.376Z,32.70
2018-06-23T19:23:18.253Z,33.24
2018-06-23T19:26:43.531Z,36.76
2018-06-23T19:30:08.583Z,36.82
2018-06-23T19:33:34.400Z,38.22
2018-06-23T19:36:59.294Z,37.98
2018-06-23T19:40:24.769Z,39.49
2018-06-23T19:43:50.072Z,39.76
2018-06-23T19:47:15.152Z,39.78
2018-06-23T19:50:41.048Z,41.21
2018-06-23T19:54:05.793Z,41.49
2018-06-23T19:57:30.546Z,42.45
2018-06-23T20:00:55.052Z,41.23
2018-06-23T20:04:20.099Z,41.86
2018-06-23T20:07:44.985Z,41.21
2018-06-23T20:11:09.587Z,40.50
2018-06-23T20:14:34.394Z,41.31
2018-06-23T20:17:59.106Z,43.38
2018-06-23T20:29:17.853Z,44.48
2018-06-23T20:32:42.570Z,42.03
2018-06-23T20:36:07.441Z,43.86
2018-06-23T20:39:32.326Z,45.13
2018-06-23T20:42:57.215Z,43.38
2018-06-23T20:46:22.196Z,43.84
2018-06-23T20:49:47.026Z,42.34
2018-06-23T20:53:11.996Z,45.02
2018-06-23T20:56:36.784Z,46.15
2018-06-23T21:00:01.813Z,47.15
2018-06-23T21:03:26.558Z,47.41
2018-06-23T21:06:51.451Z,46.53
2018-06-23T21:10:42.820Z,47.77
2018-06-23T21:14:07.590Z,46.59
2018-06-23T21:17:32.577Z,47.26
2018-06-23T21:20:57.317Z,45.44
2018-06-23T21:24:22.034Z,46.13
2018-06-23T21:27:46.861Z,45.51
2018-06-23T21:31:11.582Z,45.16
2018-06-23T21:34:36.283Z,45.39
2018-06-23T21:38:01.085Z,45.81
2018-06-23T21:41:25.938Z,44.80
2018-06-23T21:44:50.693Z,46.02
2018-06-23T21:48:15.516Z,45.05
2018-06-23T21:51:40.364Z,45.80
2018-06-23T21:55:05.728Z,46.74
2018-06-23T21:58:31.310Z,46.19
2018-06-23T22:01:56.256Z,46.59
2018-06-23T22:05:21.198Z,46.76
2018-06-23T22:08:45.925Z,47.59
2018-06-23T22:12:10.600Z,47.35
2018-06-23T22:15:36.275Z,47.61
2018-06-23T22:19:01.098Z,48.19
2018-06-23T22:22:26.224Z,48.34
2018-06-23T22:25:51.074Z,48.27
2018-06-23T22:29:15.952Z,48.34
2018-06-23T22:32:40.680Z,49.04
2018-06-23T22:36:05.438Z,49.17
2018-06-23T22:39:30.137Z,48.57
2018-06-23T22:42:54.874Z,49.16
2018-06-23T22:46:19.252Z,48.39
2018-06-23T22:49:43.956Z,49.43
2018-06-23T22:53:08.692Z,49.18
2018-06-23T22:56:33.476Z,49.45
2018-06-23T22:59:58.324Z,48.49
2018-06-23T23:03:23.013Z,48.76
2018-06-23T23:06:47.935Z,49.13
2018-06-23T23:10:12.925Z,49.23
2018-06-23T23:13:37.877Z,49.69
2018-06-23T23:17:02.949Z,49.53
2018-06-23T23:20:27.496Z,49.44
2018-06-23T23:23:52.283Z,48.82
2018-06-23T23:27:17.206Z,48.89
2018-06-23T23:30:41.919Z,48.29
2018-06-23T23:34:06.893Z,48.90
2018-06-23T23:37:31.614Z,49.07
2018-06-23T23:40:56.447Z,49.70
2018-06-23T23:44:21.436Z,49.73
2018-06-23T23:47:47.126Z,49.79
2018-06-23T23:59:11.682Z,49.62
